createdAt,value
2019-01-12T00:00:40.338Z,82.60
2019-01-12T00:01:40.321Z,84.70
2019-01-12T00:02:40.302Z,78.20
2019-01-12T00:03:40.297Z,79.60
2019-01-12T00:04:40.281Z,84.40
2019-01-12T00:05:40.284Z,83.80
2019-01-12T00:06:40.261Z,85.80
2019-01-12T00:07:40.255Z,81.90
2019-01-12T00:08:40.236Z,81.80
2019-01-12T00:09:40.231Z,86.40
2019-01-12T00:10:40.241Z,77.30
2019-01-12T00:11:40.202Z,84.10
2019-01-12T00:12:40.191Z,86.60
2019-01-12T00:13:40.180Z,84.10
2019-01-12T00:14:40.169Z,85.80
2019-01-12T00:15:40.180Z,83.10
2019-01-12T00:16:40.149Z,86.80
2019-01-12T00:17:40.137Z,83.30
2019-01-12T00:18:40.155Z,81.60
2019-01-12T00:19:40.116Z,83.00
2019-01-12T00:20:40.105Z,83.70
2019-01-12T00:21:40.121Z,83.70
2019-01-12T00:22:40.081Z,81.80
2019-01-12T00:23:40.072Z,82.90
2019-01-12T00:24:40.057Z,82.30
2019-01-12T00:25:40.051Z,83.60
2019-01-12T00:26:40.049Z,84.00
2019-01-12T00:27:40.025Z,83.00
2019-01-12T00:28:40.014Z,83.70
2019-01-12T00:29:40.006Z,88.30
2019-01-12T00:30:39.992Z,88.20
2019-01-12T00:31:39.998Z,78.20
2019-01-12T00:32:39.971Z,90.60
2019-01-12T00:33:39.966Z,81.30
2019-01-12T00:34:39.947Z,88.00
2019-01-12T00:35:39.938Z,89.20
2019-01-12T00:36:39.938Z,84.90
2019-01-12T00:37:39.921Z,85.60
2019-01-12T00:38:39.901Z,87.40
2019-01-12T00:39:39.891Z,83.20
2019-01-12T00:40:39.880Z,88.40
2019-01-12T00:41:39.886Z,85.40
2019-01-12T00:42:39.868Z,83.30
2019-01-12T00:43:39.854Z,85.20
2019-01-12T00:44:39.837Z,84.20
2019-01-12T00:45:39.823Z,83.40
2019-01-12T00:46:39.829Z,83.80
2019-01-12T00:47:39.806Z,90.60
2019-01-12T00:48:39.797Z,89.70
2019-01-12T00:49:39.781Z,91.40
2019-01-12T00:50:39.772Z,92.00
2019-01-12T00:51:39.826Z,85.00
2019-01-12T00:52:39.746Z,89.50
2019-01-12T00:53:39.739Z,91.40
2019-01-12T00:54:39.727Z,87.00
2019-01-12T00:55:39.710Z,89.20
2019-01-12T00:56:39.729Z,90.70
2019-01-12T00:57:39.689Z,87.80
2019-01-12T00:58:39.679Z,85.90
2019-01-12T00:59:39.667Z,87.10
2019-01-12T01:00:39.656Z,86.80
2019-01-12T01:01:39.646Z,88.90
2019-01-12T01:02:39.645Z,86.80
2019-01-12T01:03:39.625Z,84.40
2019-01-12T01:04:39.626Z,85.60
2019-01-12T01:05:39.601Z,81.60
2019-01-12T01:06:39.588Z,84.60
2019-01-12T01:07:39.587Z,84.20
2019-01-12T01:08:39.566Z,82.30
2019-01-12T01:09:39.557Z,79.50
2019-01-12T01:10:39.558Z,80.30
2019-01-12T01:11:39.539Z,80.50
2019-01-12T01:12:39.544Z,75.60
2019-01-12T01:13:39.510Z,73.70
2019-01-12T01:14:39.500Z,75.40
2019-01-12T01:15:39.489Z,74.00
2019-01-12T01:16:39.476Z,73.40
2019-01-12T01:17:39.479Z,73.60
2019-01-12T01:18:39.455Z,77.10
2019-01-12T01:19:39.448Z,72.10
2019-01-12T01:20:39.432Z,74.10
2019-01-12T01:21:39.425Z,69.40
2019-01-12T01:22:39.421Z,73.70
2019-01-12T01:23:39.407Z,72.70
2019-01-12T01:24:45.585Z,72.40
2019-01-12T01:25:40.377Z,71.80
2019-01-12T01:26:39.366Z,77.10
2019-01-12T01:27:39.371Z,70.60
2019-01-12T01:28:39.352Z,73.80
2019-01-12T01:29:39.336Z,70.50
2019-01-12T01:30:39.321Z,74.90
2019-01-12T01:31:39.314Z,72.60
2019-01-12T01:32:39.312Z,72.10
2019-01-12T01:33:39.289Z,67.80
2019-01-12T01:34:39.281Z,67.80
2019-01-12T01:35:39.267Z,72.70
2019-01-12T01:36:39.259Z,73.80
2019-01-12T01:37:39.257Z,70.30
2019-01-12T01:38:39.239Z,69.40
2019-01-12T01:39:39.223Z,67.60
2019-01-12T01:40:39.212Z,64.80
2019-01-12T01:41:39.200Z,65.50
2019-01-12T01:42:39.210Z,66.00
2019-01-12T01:43:39.188Z,67.30
2019-01-12T01:44:39.167Z,66.10
2019-01-12T01:45:39.155Z,65.90
2019-01-12T01:46:39.146Z,65.50
2019-01-12T01:47:39.148Z,66.20
2019-01-12T01:48:39.122Z,61.00
2019-01-12T01:49:39.115Z,66.20
2019-01-12T01:50:39.100Z,67.50
2019-01-12T01:51:39.090Z,62.70
2019-01-12T01:52:39.089Z,60.50
2019-01-12T01:53:39.070Z,61.30
2019-01-12T01:54:39.056Z,59.80
2019-01-12T01:55:39.045Z,59.30
2019-01-12T01:56:39.034Z,61.80
2019-01-12T01:57:39.048Z,60.30
2019-01-12T01:58:39.013Z,59.00
2019-01-12T01:59:39.001Z,57.40
2019-01-12T02:00:38.988Z,55.50
2019-01-12T02:01:38.980Z,59.50
2019-01-12T02:02:38.969Z,58.20
2019-01-12T02:03:38.973Z,57.40
2019-01-12T02:04:38.947Z,58.40
2019-01-12T02:05:38.936Z,53.20
2019-01-12T02:06:38.938Z,58.40
2019-01-12T02:07:38.912Z,59.70
2019-01-12T02:08:38.918Z,57.00
2019-01-12T02:09:38.891Z,56.20
2019-01-12T02:10:38.886Z,59.60
2019-01-12T02:11:38.907Z,57.20
2019-01-12T02:12:38.856Z,57.10
2019-01-12T02:13:38.913Z,56.00
2019-01-12T02:14:38.838Z,55.20
2019-01-12T02:15:38.823Z,53.00
2019-01-12T02:16:38.825Z,53.80
2019-01-12T02:17:38.813Z,51.30
2019-01-12T02:18:38.808Z,55.00
2019-01-12T02:19:38.780Z,55.40
2019-01-12T02:20:38.768Z,55.10
2019-01-12T02:21:38.760Z,54.10
2019-01-12T02:22:38.759Z,52.70
2019-01-12T02:23:38.746Z,54.50
2019-01-12T02:24:38.733Z,52.10
2019-01-12T02:25:38.713Z,53.70
2019-01-12T02:26:38.702Z,54.40
2019-01-12T02:27:38.704Z,55.10
2019-01-12T02:28:38.701Z,53.00
2019-01-12T02:29:38.681Z,49.60
2019-01-12T02:30:38.662Z,51.00
2019-01-12T02:31:38.648Z,51.60
2019-01-12T02:32:38.637Z,49.30
2019-01-12T02:33:38.644Z,47.90
2019-01-12T02:34:38.615Z,45.10
2019-01-12T02:35:38.620Z,48.50
2019-01-12T02:36:38.599Z,45.30
2019-01-12T02:37:38.581Z,45.90
2019-01-12T02:38:38.574Z,43.40
2019-01-12T02:39:38.575Z,49.00
2019-01-12T02:40:38.559Z,46.70
2019-01-12T02:41:38.542Z,45.00
2019-01-12T02:42:38.525Z,47.00
2019-01-12T02:43:38.514Z,47.20
2019-01-12T02:44:38.516Z,45.30
2019-01-12T02:45:38.498Z,49.10
2019-01-12T02:46:38.481Z,46.40
2019-01-12T02:47:38.483Z,47.70
2019-01-12T02:48:38.460Z,49.50
2019-01-12T02:49:38.457Z,50.30
2019-01-12T02:50:38.445Z,50.50
2019-01-12T02:51:38.434Z,49.70
2019-01-12T02:52:38.420Z,56.50
2019-01-12T02:53:38.404Z,49.00
2019-01-12T02:54:38.406Z,51.30
2019-01-12T02:55:38.387Z,55.20
2019-01-12T02:56:38.377Z,55.20
2019-01-12T02:57:38.363Z,50.30
2019-01-12T02:58:38.353Z,49.80
2019-01-12T02:59:38.359Z,51.20
2019-01-12T03:00:38.326Z,54.60
2019-01-12T03:01:38.314Z,50.90
2019-01-12T03:02:38.304Z,54.80
2019-01-12T03:03:38.305Z,54.50
2019-01-12T03:04:38.294Z,52.20
2019-01-12T03:05:38.272Z,50.60
2019-01-12T03:06:38.261Z,48.30
2019-01-12T03:07:38.248Z,52.10
2019-01-12T03:08:38.242Z,53.70
2019-01-12T03:09:38.240Z,52.40
2019-01-12T03:10:38.221Z,54.70
2019-01-12T03:11:38.206Z,50.90
2019-01-12T03:12:38.200Z,53.00
2019-01-12T03:13:38.184Z,49.70
2019-01-12T03:14:38.199Z,48.60
2019-01-12T03:15:38.233Z,47.90
2019-01-12T03:16:38.154Z,51.80
2019-01-12T03:17:38.143Z,50.50
2019-01-12T03:18:38.142Z,50.10
2019-01-12T03:19:38.116Z,48.50
2019-01-12T03:20:38.122Z,47.20
2019-01-12T03:21:38.095Z,48.40
2019-01-12T03:22:38.086Z,45.90
2019-01-12T03:23:38.073Z,47.50
2019-01-12T03:24:38.070Z,44.10
2019-01-12T03:25:38.064Z,47.60
2019-01-12T03:26:38.046Z,49.00
2019-01-12T03:27:38.029Z,49.00
2019-01-12T03:28:38.019Z,49.70
2019-01-12T03:29:38.007Z,48.40
2019-01-12T03:30:38.009Z,46.40
2019-01-12T03:31:37.986Z,49.10
2019-01-12T03:32:37.981Z,49.10
2019-01-12T03:33:37.961Z,50.60
2019-01-12T03:34:37.950Z,51.50
2019-01-12T03:35:37.978Z,48.50
2019-01-12T03:36:37.932Z,52.40
2019-01-12T03:37:37.964Z,47.80
2019-01-12T03:38:37.919Z,52.00
2019-01-12T03:39:37.896Z,49.40
2019-01-12T03:40:37.923Z,45.10
2019-01-12T03:41:37.873Z,46.70
2019-01-12T03:42:37.867Z,45.20
2019-01-12T03:43:37.854Z,45.80
2019-01-12T03:44:37.840Z,47.20
2019-01-12T03:45:37.846Z,44.60
2019-01-12T03:46:37.818Z,45.30
2019-01-12T03:47:37.807Z,45.00
2019-01-12T03:48:37.876Z,45.30
2019-01-12T03:49:37.790Z,45.10
2019-01-12T03:50:37.803Z,44.10
2019-01-12T03:51:37.763Z,41.40
2019-01-12T03:52:37.752Z,44.20
2019-01-12T03:53:37.741Z,43.00
2019-01-12T03:54:37.728Z,44.40
2019-01-12T03:55:37.718Z,42.20
2019-01-12T03:56:37.719Z,40.60
2019-01-12T03:57:37.697Z,42.40
2019-01-12T03:58:37.687Z,40.10
2019-01-12T03:59:37.680Z,41.00
2019-01-12T04:00:37.663Z,43.10
2019-01-12T04:01:37.673Z,44.00
2019-01-12T04:02:37.647Z,44.50
2019-01-12T04:03:37.629Z,41.50
2019-01-12T04:04:38.019Z,46.50
2019-01-12T04:05:37.610Z,45.30
2019-01-12T04:06:37.611Z,45.20
2019-01-12T04:07:37.587Z,43.60
2019-01-12T04:08:37.585Z,46.00
2019-01-12T04:09:37.565Z,48.60
2019-01-12T04:10:37.557Z,47.60
2019-01-12T04:11:37.551Z,48.00
2019-01-12T04:12:37.533Z,49.50
2019-01-12T04:13:37.520Z,50.30
2019-01-12T04:14:37.520Z,48.10
2019-01-12T04:15:37.494Z,48.60
2019-01-12T04:16:37.500Z,51.40
2019-01-12T04:17:37.479Z,50.90
2019-01-12T04:18:37.466Z,51.60
2019-01-12T04:19:37.456Z,54.10
2019-01-12T04:20:37.449Z,58.50
2019-01-12T04:21:37.443Z,51.80
2019-01-12T04:22:37.421Z,53.00
2019-01-12T04:23:37.408Z,53.10
2019-01-12T04:24:37.398Z,55.40
2019-01-12T04:25:37.402Z,54.00
2019-01-12T04:26:37.405Z,51.50
2019-01-12T04:27:37.369Z,56.00
2019-01-12T04:28:37.352Z,57.10
2019-01-12T04:29:37.344Z,57.20
2019-01-12T04:30:37.334Z,55.70
2019-01-12T04:31:37.342Z,57.50
2019-01-12T04:32:37.308Z,58.30
2019-01-12T04:33:37.302Z,57.70
2019-01-12T04:34:37.290Z,59.10
2019-01-12T04:35:37.276Z,54.90
2019-01-12T04:36:37.265Z,55.40
2019-01-12T04:37:37.265Z,56.00
2019-01-12T04:38:37.244Z,56.20
2019-01-12T04:39:37.248Z,55.70
2019-01-12T04:40:37.226Z,56.60
2019-01-12T04:41:37.209Z,59.60
2019-01-12T04:42:37.212Z,57.80
2019-01-12T04:43:37.189Z,60.80
2019-01-12T04:44:37.174Z,62.20
2019-01-12T04:45:37.165Z,58.70
2019-01-12T04:46:37.154Z,57.10
2019-01-12T04:47:37.158Z,61.00
2019-01-12T04:48:37.133Z,58.60
2019-01-12T04:49:37.128Z,60.30
2019-01-12T04:50:37.108Z,61.10
2019-01-12T04:51:37.112Z,60.10
2019-01-12T04:52:37.099Z,56.90
2019-01-12T04:53:37.078Z,62.50
2019-01-12T04:54:37.065Z,60.10
2019-01-12T04:55:41.431Z,59.80
2019-01-12T04:56:37.041Z,59.40
2019-01-12T04:57:37.043Z,59.40
2019-01-12T04:58:37.020Z,62.20
2019-01-12T04:59:37.007Z,64.10
2019-01-12T05:00:36.999Z,59.20
2019-01-12T05:01:37.005Z,59.20
2019-01-12T05:02:37.006Z,61.20
2019-01-12T05:03:36.965Z,61.50
2019-01-12T05:04:36.952Z,59.50
2019-01-12T05:05:36.944Z,60.40
2019-01-12T05:06:36.934Z,62.60
2019-01-12T05:07:36.937Z,64.50
2019-01-12T05:08:36.922Z,63.60
2019-01-12T05:09:36.899Z,64.00
2019-01-12T05:10:36.889Z,59.30
2019-01-12T05:11:36.877Z,60.90
2019-01-12T05:12:36.869Z,65.10
2019-01-12T05:13:36.866Z,62.10
2019-01-12T05:14:36.844Z,65.30
2019-01-12T05:15:36.833Z,60.60
2019-01-12T05:16:36.821Z,65.40
2019-01-12T05:17:36.809Z,65.60
2019-01-12T05:18:36.820Z,66.20
2019-01-12T05:19:36.789Z,63.40
2019-01-12T05:20:36.776Z,65.00
2019-01-12T05:21:36.764Z,62.40
2019-01-12T05:22:36.754Z,61.50
2019-01-12T05:23:36.753Z,64.60
2019-01-12T05:24:36.734Z,62.30
2019-01-12T05:25:36.729Z,63.90
2019-01-12T05:26:36.716Z,58.40
2019-01-12T05:27:36.699Z,65.40
2019-01-12T05:28:36.706Z,63.60
2019-01-12T05:29:36.682Z,63.20
2019-01-12T05:30:36.669Z,66.80
2019-01-12T05:31:36.660Z,61.70
2019-01-12T05:32:36.641Z,60.70
2019-01-12T05:33:36.654Z,59.80
2019-01-12T05:34:36.620Z,62.20
2019-01-12T05:35:36.612Z,59.80
2019-01-12T05:36:36.615Z,58.90
2019-01-12T05:37:36.588Z,61.30
2019-01-12T05:38:36.588Z,60.50
2019-01-12T05:39:36.565Z,59.60
2019-01-12T05:40:36.554Z,61.40
2019-01-12T05:41:36.544Z,56.00
2019-01-12T05:42:36.544Z,56.10
2019-01-12T05:43:36.531Z,55.90
2019-01-12T05:44:36.514Z,57.60
2019-01-12T05:45:36.507Z,60.10
2019-01-12T05:46:36.488Z,58.20
2019-01-12T05:47:36.480Z,58.00
2019-01-12T05:48:36.491Z,56.90
2019-01-12T05:49:36.453Z,57.70
2019-01-12T05:50:36.442Z,59.60
2019-01-12T05:51:36.431Z,59.50
2019-01-12T05:52:36.422Z,57.10
2019-01-12T05:53:36.417Z,59.60
2019-01-12T05:54:36.425Z,54.00
2019-01-12T05:55:36.388Z,60.30
2019-01-12T05:56:36.377Z,56.40
2019-01-12T05:57:36.363Z,56.90
2019-01-12T05:58:36.357Z,57.20
2019-01-12T05:59:36.354Z,59.50
2019-01-12T06:00:36.332Z,58.80
2019-01-12T06:01:36.320Z,59.50
2019-01-12T06:02:36.311Z,59.90
2019-01-12T06:03:36.299Z,59.10
2019-01-12T06:04:36.304Z,58.60
2019-01-12T06:05:36.276Z,59.80
2019-01-12T06:06:36.265Z,60.40
2019-01-12T06:07:36.254Z,59.50
2019-01-12T06:08:36.241Z,60.40
2019-01-12T06:09:36.244Z,58.10
2019-01-12T06:10:36.221Z,58.70
2019-01-12T06:11:36.222Z,57.10
2019-01-12T06:12:36.202Z,58.80
2019-01-12T06:13:36.188Z,63.40
2019-01-12T06:14:36.193Z,61.00
2019-01-12T06:15:36.166Z,58.90
2019-01-12T06:16:36.160Z,60.50
2019-01-12T06:17:36.157Z,58.20
2019-01-12T06:18:36.130Z,64.00
2019-01-12T06:19:36.129Z,62.00
2019-01-12T06:20:36.112Z,64.40
2019-01-12T06:21:36.110Z,64.40
2019-01-12T06:22:36.089Z,64.90
2019-01-12T06:23:36.079Z,63.90
2019-01-12T06:24:36.083Z,60.70
2019-01-12T06:25:36.055Z,65.50
2019-01-12T06:26:36.042Z,62.70
2019-01-12T06:27:36.031Z,64.10
2019-01-12T06:28:36.023Z,66.80
2019-01-12T06:29:36.027Z,63.90
2019-01-12T06:30:36.002Z,64.70
2019-01-12T06:31:35.993Z,68.10
2019-01-12T06:32:35.979Z,65.10
2019-01-12T06:33:35.970Z,62.00
2019-01-12T06:34:35.968Z,62.40
2019-01-12T06:35:35.949Z,65.00
2019-01-12T06:36:35.932Z,61.20
2019-01-12T06:37:35.923Z,64.60
2019-01-12T06:38:35.914Z,65.80
2019-01-12T06:39:35.951Z,66.40
2019-01-12T06:40:35.891Z,65.50
2019-01-12T06:41:35.882Z,64.90
2019-01-12T06:42:35.867Z,64.00
2019-01-12T06:43:35.857Z,67.50
2019-01-12T06:44:35.845Z,62.50
2019-01-12T06:45:35.845Z,68.90
2019-01-12T06:46:35.825Z,67.40
2019-01-12T06:47:35.818Z,62.50
2019-01-12T06:48:35.803Z,62.50
2019-01-12T06:49:35.793Z,61.80
2019-01-12T06:50:35.789Z,65.80
2019-01-12T06:51:35.768Z,66.90
2019-01-12T06:52:35.760Z,63.90
2019-01-12T06:53:35.744Z,62.40
2019-01-12T06:54:35.737Z,64.30
2019-01-12T06:55:35.740Z,61.10
2019-01-12T06:56:35.715Z,62.70
2019-01-12T06:57:35.708Z,64.50
2019-01-12T06:58:35.694Z,62.10
2019-01-12T06:59:35.698Z,58.60
2019-01-12T07:00:35.681Z,59.90
2019-01-12T07:01:35.656Z,65.00
2019-01-12T07:02:35.645Z,66.10
2019-01-12T07:03:35.637Z,61.40
2019-01-12T07:04:35.625Z,57.60
2019-01-12T07:05:35.625Z,57.40
2019-01-12T07:06:35.602Z,59.70
2019-01-12T07:07:35.591Z,59.00
2019-01-12T07:08:35.578Z,61.60
2019-01-12T07:09:35.569Z,65.60
2019-01-12T07:10:35.575Z,59.80
2019-01-12T07:11:35.990Z,61.40
2019-01-12T07:12:35.535Z,56.80
2019-01-12T07:13:35.525Z,57.10
2019-01-12T07:14:35.520Z,58.00
2019-01-12T07:15:35.515Z,56.30
2019-01-12T07:16:35.495Z,57.30
2019-01-12T07:17:35.480Z,57.00
2019-01-12T07:18:35.470Z,55.60
2019-01-12T07:19:35.458Z,53.00
2019-01-12T07:20:35.457Z,56.80
2019-01-12T07:21:35.442Z,51.80
2019-01-12T07:22:35.425Z,52.80
2019-01-12T07:23:35.417Z,54.10
2019-01-12T07:24:35.403Z,51.70
2019-01-12T07:25:35.418Z,53.50
2019-01-12T07:26:35.386Z,48.00
2019-01-12T07:27:35.386Z,47.60
2019-01-12T07:28:35.363Z,48.20
2019-01-12T07:29:35.398Z,49.00
2019-01-12T07:30:35.341Z,50.40
2019-01-12T07:31:35.356Z,49.00
2019-01-12T07:32:35.315Z,50.00
2019-01-12T07:33:35.307Z,47.90
2019-01-12T07:34:35.300Z,47.70
2019-01-12T07:35:35.282Z,46.40
2019-01-12T07:36:35.281Z,46.00
2019-01-12T07:37:35.275Z,48.50
2019-01-12T07:38:35.265Z,45.50
2019-01-12T07:39:35.239Z,47.80
2019-01-12T07:40:35.233Z,47.80
2019-01-12T07:41:35.234Z,48.10
2019-01-12T07:42:35.204Z,47.00
2019-01-12T07:43:35.194Z,45.80
2019-01-12T07:44:35.184Z,48.40
2019-01-12T07:45:35.206Z,43.90
2019-01-12T07:46:35.185Z,47.60
2019-01-12T07:47:35.149Z,48.60
2019-01-12T07:48:35.137Z,53.40
2019-01-12T07:49:35.148Z,50.20
2019-01-12T07:50:35.125Z,49.40
2019-01-12T07:51:35.118Z,51.50
2019-01-12T07:52:35.093Z,51.70
2019-01-12T07:53:35.083Z,50.20
2019-01-12T07:54:35.072Z,51.30
2019-01-12T07:55:35.063Z,53.60
2019-01-12T07:56:35.066Z,51.70
2019-01-12T07:57:35.040Z,49.20
2019-01-12T07:58:35.030Z,51.80
2019-01-12T07:59:35.023Z,52.50
2019-01-12T08:00:35.011Z,51.60
2019-01-12T08:01:35.011Z,52.50
2019-01-12T08:02:34.983Z,48.80
2019-01-12T08:03:34.976Z,50.10
2019-01-12T08:04:34.962Z,50.70
2019-01-12T08:05:34.963Z,52.30
2019-01-12T08:06:34.951Z,51.20
2019-01-12T08:07:34.948Z,47.80
2019-01-12T08:08:34.919Z,47.40
2019-01-12T08:09:34.918Z,49.50
2019-01-12T08:10:34.899Z,53.40
2019-01-12T08:11:34.930Z,49.90
2019-01-12T08:12:34.874Z,49.60
2019-01-12T08:13:34.863Z,49.40
2019-01-12T08:14:34.855Z,52.00
2019-01-12T08:15:34.841Z,49.10
2019-01-12T08:16:34.844Z,51.60
2019-01-12T08:17:34.823Z,51.50
2019-01-12T08:18:34.808Z,53.60
2019-01-12T08:19:34.801Z,50.30
2019-01-12T08:20:34.787Z,51.10
2019-01-12T08:21:34.785Z,49.00
2019-01-12T08:22:34.766Z,49.10
2019-01-12T08:23:34.752Z,49.10
2019-01-12T08:24:34.741Z,46.40
2019-01-12T08:25:34.730Z,48.40
2019-01-12T08:26:34.736Z,49.30
2019-01-12T08:27:34.710Z,46.60
2019-01-12T08:28:34.700Z,48.30
2019-01-12T08:29:34.690Z,47.10
2019-01-12T08:30:34.678Z,47.60
2019-01-12T08:31:34.681Z,45.20
2019-01-12T08:32:34.652Z,46.80
2019-01-12T08:33:34.647Z,47.50
2019-01-12T08:34:34.633Z,46.40
2019-01-12T08:35:34.625Z,48.00
2019-01-12T08:36:34.738Z,45.30
2019-01-12T08:37:34.598Z,44.40
2019-01-12T08:38:34.588Z,44.50
2019-01-12T08:39:34.586Z,41.60
2019-01-12T08:40:34.565Z,41.50
2019-01-12T08:41:34.559Z,40.10
2019-01-12T08:42:34.560Z,46.20
2019-01-12T08:43:34.531Z,41.30
2019-01-12T08:44:34.522Z,41.20
2019-01-12T08:45:34.514Z,42.60
2019-01-12T08:46:34.498Z,39.70
2019-01-12T08:47:34.502Z,44.50
2019-01-12T08:48:34.474Z,40.20
2019-01-12T08:49:34.465Z,43.50
2019-01-12T08:50:34.454Z,42.40
2019-01-12T08:51:34.461Z,41.40
2019-01-12T08:52:34.457Z,42.20
2019-01-12T08:53:34.423Z,42.40
2019-01-12T08:54:34.413Z,44.70
2019-01-12T08:55:34.398Z,42.90
2019-01-12T08:56:38.280Z,40.40
2019-01-12T08:57:34.392Z,37.00
2019-01-12T08:58:34.364Z,37.80
2019-01-12T08:59:34.355Z,37.80
2019-01-12T09:00:34.344Z,40.50
2019-01-12T09:01:34.335Z,37.40
2019-01-12T09:02:34.342Z,37.90
2019-01-12T09:03:34.312Z,36.50
2019-01-12T09:04:34.302Z,37.20
2019-01-12T09:05:34.290Z,36.60
2019-01-12T09:06:34.324Z,35.40
2019-01-12T09:07:34.284Z,35.20
2019-01-12T09:08:34.256Z,34.10
2019-01-12T09:09:34.243Z,32.90
2019-01-12T09:10:34.245Z,33.20
2019-01-12T09:11:34.221Z,33.00
2019-01-12T09:12:34.211Z,28.00
2019-01-12T09:13:34.213Z,30.50
2019-01-12T09:14:34.188Z,32.90
2019-01-12T09:15:34.194Z,33.30
2019-01-12T09:16:34.178Z,32.50
2019-01-12T09:17:34.167Z,30.30
2019-01-12T09:18:34.156Z,31.40
2019-01-12T09:19:34.141Z,30.50
2019-01-12T09:20:34.128Z,29.00
2019-01-12T09:21:34.138Z,31.00
2019-01-12T09:22:34.099Z,31.30
2019-01-12T09:23:34.099Z,31.70
2019-01-12T09:24:34.077Z,33.40
2019-01-12T09:25:34.073Z,33.40
2019-01-12T09:26:34.070Z,34.90
2019-01-12T09:27:34.068Z,30.90
2019-01-12T09:28:34.049Z,32.80
2019-01-12T09:29:34.025Z,33.10
2019-01-12T09:30:34.013Z,34.70
2019-01-12T09:31:34.007Z,31.90
2019-01-12T09:32:34.006Z,32.80
2019-01-12T09:33:34.000Z,32.80
2019-01-12T09:34:33.990Z,28.30
2019-01-12T09:35:33.961Z,29.80
2019-01-12T09:36:33.946Z,31.80
2019-01-12T09:37:33.936Z,29.80
2019-01-12T09:38:33.947Z,31.00
2019-01-12T09:39:33.913Z,32.50
2019-01-12T09:40:33.902Z,30.30
2019-01-12T09:41:33.893Z,29.30
2019-01-12T09:42:33.884Z,34.30
2019-01-12T09:43:33.886Z,35.40
2019-01-12T09:44:33.871Z,32.30
2019-01-12T09:45:33.860Z,30.70
2019-01-12T09:46:33.836Z,29.00
2019-01-12T09:47:33.825Z,29.20
2019-01-12T09:48:33.853Z,30.60
2019-01-12T09:49:33.805Z,30.40
2019-01-12T09:50:33.792Z,30.20
2019-01-12T09:51:33.783Z,32.10
2019-01-12T09:52:33.771Z,30.30
2019-01-12T09:53:33.773Z,33.50
2019-01-12T09:54:33.769Z,31.50
2019-01-12T09:55:33.746Z,29.50
2019-01-12T09:56:33.751Z,27.40
2019-01-12T09:57:33.716Z,30.40
2019-01-12T09:58:33.706Z,29.00
2019-01-12T09:59:33.706Z,29.00
2019-01-12T10:00:33.685Z,28.50
2019-01-12T10:01:33.672Z,28.50
2019-01-12T10:02:33.661Z,29.40
2019-01-12T10:03:33.651Z,30.40
2019-01-12T10:04:33.649Z,26.30
2019-01-12T10:05:33.629Z,29.50
2019-01-12T10:06:33.617Z,27.30
2019-01-12T10:07:33.610Z,28.30
2019-01-12T10:08:33.594Z,30.00
2019-01-12T10:09:33.597Z,30.80
2019-01-12T10:10:33.575Z,30.50
2019-01-12T10:11:33.562Z,28.00
2019-01-12T10:12:33.562Z,30.00
2019-01-12T10:13:33.555Z,30.10
2019-01-12T10:14:33.543Z,30.80
2019-01-12T10:15:33.520Z,32.30
2019-01-12T10:16:33.509Z,31.10
2019-01-12T10:17:33.505Z,31.30
2019-01-12T10:18:33.490Z,34.10
2019-01-12T10:19:33.488Z,34.70
2019-01-12T10:20:33.463Z,31.90
2019-01-12T10:21:33.452Z,31.00
2019-01-12T10:22:33.438Z,33.10
2019-01-12T10:23:33.431Z,35.30
2019-01-12T10:24:33.430Z,32.50
2019-01-12T10:25:33.418Z,34.40
2019-01-12T10:26:33.397Z,32.30
2019-01-12T10:27:33.392Z,31.60
2019-01-12T10:28:33.375Z,31.30
2019-01-12T10:29:33.375Z,33.60
2019-01-12T10:30:33.351Z,31.80
2019-01-12T10:31:33.350Z,33.40
2019-01-12T10:32:33.331Z,33.50
2019-01-12T10:33:33.331Z,32.00
2019-01-12T10:34:33.323Z,32.70
2019-01-12T10:35:33.300Z,34.50
2019-01-12T10:36:33.289Z,33.10
2019-01-12T10:37:33.279Z,33.90
2019-01-12T10:38:33.265Z,33.70
2019-01-12T10:39:33.272Z,35.10
2019-01-12T10:40:33.245Z,35.70
2019-01-12T10:41:33.241Z,35.80
2019-01-12T10:42:33.222Z,36.60
2019-01-12T10:43:33.221Z,34.40
2019-01-12T10:44:33.223Z,34.80
2019-01-12T10:45:33.191Z,32.10
2019-01-12T10:46:33.177Z,34.10
2019-01-12T10:47:33.168Z,37.30
2019-01-12T10:48:33.161Z,35.20
2019-01-12T10:49:33.155Z,36.20
2019-01-12T10:50:33.153Z,35.80
2019-01-12T10:51:33.137Z,35.70
2019-01-12T10:52:33.112Z,35.40
2019-01-12T10:53:33.103Z,36.40
2019-01-12T10:54:33.096Z,36.60
2019-01-12T10:55:33.094Z,33.30
2019-01-12T10:56:33.069Z,36.40
2019-01-12T10:57:33.057Z,37.90
2019-01-12T10:58:33.045Z,36.70
2019-01-12T10:59:33.034Z,36.80
2019-01-12T11:00:33.040Z,37.60
2019-01-12T11:01:33.021Z,39.20
2019-01-12T11:02:33.025Z,41.10
2019-01-12T11:03:32.998Z,37.40
2019-01-12T11:04:32.983Z,37.20
2019-01-12T11:05:32.982Z,40.20
2019-01-12T11:06:32.964Z,38.30
2019-01-12T11:07:32.957Z,39.70
2019-01-12T11:08:32.938Z,37.90
2019-01-12T11:09:32.931Z,39.50
2019-01-12T11:10:32.931Z,40.10
2019-01-12T11:11:32.905Z,42.00
2019-01-12T11:12:32.892Z,43.70
2019-01-12T11:13:32.883Z,41.10
2019-01-12T11:14:32.872Z,37.40
2019-01-12T11:15:32.885Z,40.80
2019-01-12T11:16:32.851Z,40.20
2019-01-12T11:17:32.860Z,40.20
2019-01-12T11:18:32.826Z,39.10
2019-01-12T11:19:32.817Z,42.00
2019-01-12T11:20:32.858Z,44.40
2019-01-12T11:21:32.793Z,39.70
2019-01-12T11:22:32.859Z,38.90
2019-01-12T11:23:32.790Z,38.90
2019-01-12T11:24:32.805Z,36.50
2019-01-12T11:25:33.450Z,38.60
2019-01-12T11:26:32.785Z,38.20
2019-01-12T11:27:32.735Z,38.20
2019-01-12T11:28:32.721Z,37.70
2019-01-12T11:29:32.743Z,36.80
2019-01-12T11:30:32.705Z,38.50
2019-01-12T11:31:32.688Z,37.80
2019-01-12T11:32:32.700Z,39.30
2019-01-12T11:33:32.662Z,35.00
2019-01-12T11:34:32.650Z,37.30
2019-01-12T11:35:32.666Z,38.60
2019-01-12T11:36:32.673Z,36.30
2019-01-12T11:37:32.618Z,36.90
2019-01-12T11:38:32.628Z,41.40
2019-01-12T11:39:32.600Z,40.40
2019-01-12T11:40:32.612Z,39.00
2019-01-12T11:41:32.583Z,40.20
2019-01-12T11:42:32.577Z,41.60
2019-01-12T11:43:32.568Z,37.10
2019-01-12T11:44:32.555Z,39.70
2019-01-12T11:45:32.540Z,39.90
2019-01-12T11:46:32.537Z,41.30
2019-01-12T11:47:32.507Z,40.40
2019-01-12T11:48:32.501Z,39.60
2019-01-12T11:49:32.498Z,41.60
2019-01-12T11:50:32.473Z,40.80
2019-01-12T11:51:32.499Z,41.30
2019-01-12T11:52:32.453Z,40.80
2019-01-12T11:53:32.483Z,41.20
2019-01-12T11:54:32.429Z,41.50
2019-01-12T11:55:32.427Z,39.50
2019-01-12T11:56:32.417Z,42.70
2019-01-12T11:57:32.404Z,42.20
2019-01-12T11:58:32.413Z,43.70
2019-01-12T11:59:32.453Z,43.50
2019-01-12T12:00:32.374Z,45.20
2019-01-12T12:01:32.386Z,43.90
2019-01-12T12:02:37.665Z,46.00
2019-01-12T12:03:33.343Z,43.60
2019-01-12T12:04:33.275Z,46.20
2019-01-12T12:05:32.306Z,46.10
2019-01-12T12:06:32.310Z,46.70
2019-01-12T12:07:32.298Z,47.40
2019-01-12T12:08:32.289Z,47.30
2019-01-12T12:09:32.292Z,49.40
2019-01-12T12:10:32.251Z,49.10
2019-01-12T12:11:32.295Z,50.30
2019-01-12T12:12:32.235Z,46.10
2019-01-12T12:13:32.282Z,51.00
2019-01-12T12:14:32.211Z,51.70
2019-01-12T12:15:32.199Z,52.50
2019-01-12T12:16:32.196Z,53.30
2019-01-12T12:17:32.190Z,54.00
2019-01-12T12:18:32.163Z,54.30
2019-01-12T12:19:32.160Z,54.60
2019-01-12T12:20:32.153Z,51.90
2019-01-12T12:21:32.131Z,52.40
2019-01-12T12:22:32.189Z,49.80
2019-01-12T12:23:32.113Z,47.60
2019-01-12T12:24:32.102Z,52.40
2019-01-12T12:25:32.086Z,53.30
2019-01-12T12:26:32.080Z,51.20
2019-01-12T12:27:32.096Z,52.40
2019-01-12T12:28:32.059Z,54.80
2019-01-12T12:29:32.057Z,55.00
2019-01-12T12:30:32.051Z,50.80
2019-01-12T12:31:32.020Z,54.10
2019-01-12T12:32:32.018Z,50.50
2019-01-12T12:33:32.012Z,50.80
2019-01-12T12:34:31.992Z,51.80
2019-01-12T12:35:37.658Z,52.40
2019-01-12T12:36:33.000Z,52.90
2019-01-12T12:37:31.958Z,52.60
2019-01-12T12:38:31.964Z,48.90
2019-01-12T12:39:31.966Z,50.30
2019-01-12T12:40:31.924Z,52.30
2019-01-12T12:41:31.913Z,49.50
2019-01-12T12:42:31.925Z,49.90
2019-01-12T12:43:31.909Z,50.80
2019-01-12T12:44:31.879Z,48.40
2019-01-12T12:45:31.895Z,51.30
2019-01-12T12:46:31.861Z,48.40
2019-01-12T12:47:31.849Z,48.90
2019-01-12T12:48:31.859Z,53.60
2019-01-12T12:49:31.837Z,51.30
2019-01-12T12:50:31.846Z,52.60
2019-01-12T12:51:31.806Z,52.70
2019-01-12T12:52:31.790Z,51.80